Skip Navigation LinksHome page > Tools > METAR decoder Skip Navigation Links

METAR decoder

Settings

METAR

Chicago O'Hare Intl, Chicago

For information only: do not use for flight planning or navigation.
Latest weather
Observation time Wednesday, February 22, 2017 2:05 AM CST
Local time Wednesday, February 22, 2017 2:22 AM CST
Flight conditions Marginal Visual Meteorological Conditions
Winds
Wind direction South (190°)
Wind speed 8 mph
Visibility 3 mi.
Present weather mist
Sky condition
Ceiling unlimited
Cloud layer few clouds 2,600 ft.
Temperature 51°F
Dewpoint 49°F
Altimeter 29.82 in.Hg
Derived measurements
Relative humidity 92%
Density altitude 426 ft.
Remarks
Automated weather observing station with precipitation discriminator.
METAR KORD 220805Z 19007KT 3SM BR FEW026 11/09 A2982 RMK AO2 T01060094

InnerDrive.Weather 4.0.6144.1 Release CLR 4.0.30319.34209
Copyright ©2015 Inner Drive Technology. All rights reserved. Portions Copyright ©1986-2015 David Braverman.

Find weather

Site navigation


Skip Navigation Links

Place info

Page info

PayPal - The safer, easier way to pay online!

Return home.

Copyright ©2017 Inner Drive Technology. Purveyors of fine, hand-crafted computer software. Page printed 2017-02-22T08:22:00 UTC.